Terminal Aerodrome Forecast
Issued by NWS

Home | Current Version | Previous Version | Text Only | Print | Product List | Glossary On
Versions: 1 2 3 4 5 6 7 8 9 10 11 12 13 14 15 16 17 18 19 20 21 22 23 24 25 26 27 28 29 30 31 32 33 34 35 36 37 38 39 40 41 42 43 44 45 46 47
000
FTUS45 KBOU 251952 AAA
TAFAPA
TAF AMD
KAPA 251952Z 2520/2618 15006KT P6SM FEW140 BKN220
     FM252200 23008KT P6SM FEW080 SCT140 BKN220
     FM260000 28008G15KT P6SM SCT140 BKN220
     FM260200 35006KT P6SM SCT150 SCT220
     FM260500 19007KT P6SM FEW150 SCT220=

USA.gov is the U.S. government's official web portal to all federal, state and local government web resources and services.